sensor_id;sensor_type;location;lat;lon;timestamp;P1;durP1;ratioP1;P2;durP2;ratioP2
6438;SDS011;3252;52.540;13.290;2023-05-19T00:01:56;7.93;;;2.17;;
6438;SDS011;3252;52.540;13.290;2023-05-19T00:03:59;7.63;;;2.60;;
6438;SDS011;3252;52.540;13.290;2023-05-19T00:06:03;7.23;;;2.57;;
6438;SDS011;3252;52.540;13.290;2023-05-19T00:08:07;6.87;;;2.17;;
6438;SDS011;3252;52.540;13.290;2023-05-19T00:10:12;7.90;;;2.50;;
6438;SDS011;3252;52.540;13.290;2023-05-19T00:12:18;8.60;;;2.33;;
6438;SDS011;3252;52.540;13.290;2023-05-19T00:14:21;9.17;;;2.40;;
6438;SDS011;3252;52.540;13.290;2023-05-19T00:16:24;12.70;;;2.67;;
6438;SDS011;3252;52.540;13.290;2023-05-19T00:18:27;6.97;;;2.40;;
6438;SDS011;3252;52.540;13.290;2023-05-19T00:20:30;8.67;;;2.60;;
6438;SDS011;3252;52.540;13.290;2023-05-19T00:22:32;9.83;;;2.10;;
6438;SDS011;3252;52.540;13.290;2023-05-19T00:24:36;8.43;;;2.73;;
6438;SDS011;3252;52.540;13.290;2023-05-19T00:26:40;9.93;;;2.67;;
6438;SDS011;3252;52.540;13.290;2023-05-19T00:28:43;10.20;;;2.70;;
6438;SDS011;3252;52.540;13.290;2023-05-19T00:30:49;10.80;;;3.07;;
6438;SDS011;3252;52.540;13.290;2023-05-19T00:32:51;8.50;;;2.63;;
6438;SDS011;3252;52.540;13.290;2023-05-19T00:34:54;11.77;;;2.80;;
6438;SDS011;3252;52.540;13.290;2023-05-19T00:36:56;8.60;;;2.57;;
6438;SDS011;3252;52.540;13.290;2023-05-19T00:38:58;10.30;;;2.67;;
6438;SDS011;3252;52.540;13.290;2023-05-19T00:41:03;9.13;;;2.33;;
6438;SDS011;3252;52.540;13.290;2023-05-19T00:43:09;8.27;;;2.40;;
6438;SDS011;3252;52.540;13.290;2023-05-19T00:45:11;11.27;;;2.50;;
6438;SDS011;3252;52.540;13.290;2023-05-19T00:47:13;10.53;;;2.57;;
6438;SDS011;3252;52.540;13.290;2023-05-19T00:49:16;11.30;;;2.90;;
6438;SDS011;3252;52.540;13.290;2023-05-19T00:51:18;10.07;;;2.67;;
6438;SDS011;3252;52.540;13.290;2023-05-19T00:53:21;10.90;;;2.90;;
6438;SDS011;3252;52.540;13.290;2023-05-19T00:55:25;8.40;;;2.37;;
6438;SDS011;3252;52.540;13.290;2023-05-19T00:57:32;10.80;;;2.90;;
6438;SDS011;3252;52.540;13.290;2023-05-19T00:59:34;6.60;;;2.30;;
6438;SDS011;3252;52.540;13.290;2023-05-19T01:01:37;8.97;;;2.70;;
6438;SDS011;3252;52.540;13.290;2023-05-19T01:03:40;6.23;;;2.50;;
6438;SDS011;3252;52.540;13.290;2023-05-19T01:05:43;8.97;;;2.70;;
6438;SDS011;3252;52.540;13.290;2023-05-19T01:07:47;8.20;;;2.07;;
6438;SDS011;3252;52.540;13.290;2023-05-19T01:09:55;8.83;;;2.47;;
6438;SDS011;3252;52.540;13.290;2023-05-19T01:11:57;11.70;;;4.13;;
6438;SDS011;3252;52.540;13.290;2023-05-19T01:14:02;8.03;;;2.63;;
6438;SDS011;3252;52.540;13.290;2023-05-19T01:16:06;10.20;;;2.50;;
6438;SDS011;3252;52.540;13.290;2023-05-19T01:18:13;8.13;;;2.57;;
6438;SDS011;3252;52.540;13.290;2023-05-19T01:20:21;10.00;;;2.57;;
6438;SDS011;3252;52.540;13.290;2023-05-19T01:22:31;12.67;;;3.00;;
6438;SDS011;3252;52.540;13.290;2023-05-19T01:24:58;7.47;;;2.50;;
6438;SDS011;3252;52.540;13.290;2023-05-19T01:27:17;7.73;;;2.27;;
6438;SDS011;3252;52.540;13.290;2023-05-19T01:29:42;10.30;;;2.20;;
6438;SDS011;3252;52.540;13.290;2023-05-19T01:32:06;9.87;;;2.30;;
6438;SDS011;3252;52.540;13.290;2023-05-19T01:34:13;11.23;;;2.53;;
6438;SDS011;3252;52.540;13.290;2023-05-19T01:36:21;9.37;;;2.77;;
6438;SDS011;3252;52.540;13.290;2023-05-19T01:38:24;8.97;;;2.63;;
6438;SDS011;3252;52.540;13.290;2023-05-19T01:40:29;6.93;;;2.77;;
6438;SDS011;3252;52.540;13.290;2023-05-19T01:42:32;8.70;;;2.30;;
6438;SDS011;3252;52.540;13.290;2023-05-19T01:44:38;10.77;;;2.67;;
6438;SDS011;3252;52.540;13.290;2023-05-19T01:46:46;7.83;;;2.50;;
6438;SDS011;3252;52.540;13.290;2023-05-19T01:48:49;7.87;;;2.27;;
6438;SDS011;3252;52.540;13.290;2023-05-19T01:50:53;10.03;;;2.57;;
6438;SDS011;3252;52.540;13.290;2023-05-19T01:52:56;5.80;;;2.33;;
6438;SDS011;3252;52.540;13.290;2023-05-19T01:55:08;7.93;;;2.30;;
6438;SDS011;3252;52.540;13.290;2023-05-19T01:57:13;10.07;;;2.83;;
6438;SDS011;3252;52.540;13.290;2023-05-19T01:59:25;10.90;;;2.80;;
6438;SDS011;3252;52.540;13.290;2023-05-19T02:01:40;6.43;;;2.33;;
6438;SDS011;3252;52.540;13.290;2023-05-19T02:04:00;10.97;;;3.23;;
6438;SDS011;3252;52.540;13.290;2023-05-19T02:06:22;9.33;;;2.80;;
6438;SDS011;3252;52.540;13.290;2023-05-19T02:08:36;9.93;;;2.80;;
6438;SDS011;3252;52.540;13.290;2023-05-19T02:10:44;8.47;;;2.73;;
6438;SDS011;3252;52.540;13.290;2023-05-19T02:12:55;9.67;;;2.73;;
6438;SDS011;3252;52.540;13.290;2023-05-19T02:15:06;9.53;;;2.73;;
6438;SDS011;3252;52.540;13.290;2023-05-19T02:17:12;8.77;;;2.90;;
6438;SDS011;3252;52.540;13.290;2023-05-19T02:19:21;10.27;;;2.83;;
6438;SDS011;3252;52.540;13.290;2023-05-19T02:21:25;9.10;;;2.70;;
6438;SDS011;3252;52.540;13.290;2023-05-19T02:23:28;8.77;;;2.90;;
6438;SDS011;3252;52.540;13.290;2023-05-19T02:25:31;7.07;;;2.90;;
6438;SDS011;3252;52.540;13.290;2023-05-19T02:27:33;7.97;;;2.80;;
6438;SDS011;3252;52.540;13.290;2023-05-19T02:29:40;7.83;;;2.60;;
6438;SDS011;3252;52.540;13.290;2023-05-19T02:31:42;11.20;;;2.93;;
6438;SDS011;3252;52.540;13.290;2023-05-19T02:33:45;8.50;;;2.70;;
6438;SDS011;3252;52.540;13.290;2023-05-19T02:35:49;13.33;;;3.17;;
6438;SDS011;3252;52.540;13.290;2023-05-19T02:37:51;8.67;;;2.80;;
6438;SDS011;3252;52.540;13.290;2023-05-19T02:39:53;7.83;;;2.70;;
6438;SDS011;3252;52.540;13.290;2023-05-19T02:41:58;8.50;;;2.60;;
6438;SDS011;3252;52.540;13.290;2023-05-19T02:44:01;10.00;;;2.73;;
6438;SDS011;3252;52.540;13.290;2023-05-19T02:46:04;8.80;;;2.40;;
6438;SDS011;3252;52.540;13.290;2023-05-19T02:48:06;9.33;;;2.50;;
6438;SDS011;3252;52.540;13.290;2023-05-19T02:50:09;8.27;;;2.50;;
6438;SDS011;3252;52.540;13.290;2023-05-19T02:52:13;7.20;;;2.80;;
6438;SDS011;3252;52.540;13.290;2023-05-19T02:54:15;8.13;;;2.50;;
6438;SDS011;3252;52.540;13.290;2023-05-19T02:56:17;11.77;;;2.57;;
6438;SDS011;3252;52.540;13.290;2023-05-19T02:58:20;9.40;;;2.67;;
6438;SDS011;3252;52.540;13.290;2023-05-19T03:00:23;6.03;;;2.50;;
6438;SDS011;3252;52.540;13.290;2023-05-19T03:02:27;9.07;;;2.80;;
6438;SDS011;3252;52.540;13.290;2023-05-19T03:04:32;9.73;;;2.73;;
6438;SDS011;3252;52.540;13.290;2023-05-19T03:06:41;9.03;;;2.53;;
6438;SDS011;3252;52.540;13.290;2023-05-19T03:08:51;7.77;;;2.93;;
6438;SDS011;3252;52.540;13.290;2023-05-19T03:10:53;9.70;;;3.00;;
6438;SDS011;3252;52.540;13.290;2023-05-19T03:12:55;8.97;;;2.80;;
6438;SDS011;3252;52.540;13.290;2023-05-19T03:15:00;13.33;;;2.63;;
6438;SDS011;3252;52.540;13.290;2023-05-19T03:17:07;10.90;;;2.70;;
6438;SDS011;3252;52.540;13.290;2023-05-19T03:19:10;9.83;;;3.30;;
6438;SDS011;3252;52.540;13.290;2023-05-19T03:21:15;8.87;;;2.70;;
6438;SDS011;3252;52.540;13.290;2023-05-19T03:23:18;8.30;;;2.73;;
6438;SDS011;3252;52.540;13.290;2023-05-19T03:25:22;5.97;;;2.27;;
6438;SDS011;3252;52.540;13.290;2023-05-19T03:27:28;5.03;;;2.27;;
6438;SDS011;3252;52.540;13.290;2023-05-19T03:29:30;7.93;;;2.20;;
6438;SDS011;3252;52.540;13.290;2023-05-19T03:31:33;11.40;;;2.80;;
6438;SDS011;3252;52.540;13.290;2023-05-19T03:33:35;9.43;;;2.83;;
6438;SDS011;3252;52.540;13.290;2023-05-19T03:35:44;9.63;;;2.90;;
6438;SDS011;3252;52.540;13.290;2023-05-19T03:37:47;12.57;;;2.80;;
6438;SDS011;3252;52.540;13.290;2023-05-19T03:39:49;10.03;;;3.07;;
6438;SDS011;3252;52.540;13.290;2023-05-19T03:41:53;10.13;;;2.53;;
6438;SDS011;3252;52.540;13.290;2023-05-19T03:43:59;7.20;;;2.50;;
6438;SDS011;3252;52.540;13.290;2023-05-19T03:46:01;9.53;;;3.07;;
6438;SDS011;3252;52.540;13.290;2023-05-19T03:48:23;10.17;;;2.70;;
6438;SDS011;3252;52.540;13.290;2023-05-19T03:51:02;11.03;;;2.70;;
6438;SDS011;3252;52.540;13.290;2023-05-19T03:53:05;8.43;;;2.80;;
6438;SDS011;3252;52.540;13.290;2023-05-19T03:55:14;10.27;;;2.80;;
6438;SDS011;3252;52.540;13.290;2023-05-19T03:57:22;8.70;;;2.57;;
6438;SDS011;3252;52.540;13.290;2023-05-19T03:59:29;8.40;;;2.30;;
6438;SDS011;3252;52.540;13.290;2023-05-19T04:01:32;9.03;;;2.87;;
6438;SDS011;3252;52.540;13.290;2023-05-19T04:03:34;9.07;;;2.60;;
6438;SDS011;3252;52.540;13.290;2023-05-19T04:05:37;6.30;;;2.43;;
6438;SDS011;3252;52.540;13.290;2023-05-19T04:07:39;9.60;;;2.53;;
6438;SDS011;3252;52.540;13.290;2023-05-19T04:09:42;8.43;;;2.93;;
6438;SDS011;3252;52.540;13.290;2023-05-19T04:11:44;6.77;;;2.37;;
6438;SDS011;3252;52.540;13.290;2023-05-19T04:13:48;10.27;;;2.97;;
6438;SDS011;3252;52.540;13.290;2023-05-19T04:15:50;11.07;;;2.47;;
6438;SDS011;3252;52.540;13.290;2023-05-19T04:17:54;8.03;;;2.63;;
6438;SDS011;3252;52.540;13.290;2023-05-19T04:19:56;8.20;;;2.73;;
6438;SDS011;3252;52.540;13.290;2023-05-19T04:22:02;6.87;;;2.73;;
6438;SDS011;3252;52.540;13.290;2023-05-19T04:24:05;8.60;;;2.70;;
6438;SDS011;3252;52.540;13.290;2023-05-19T04:26:08;7.57;;;2.77;;
6438;SDS011;3252;52.540;13.290;2023-05-19T04:28:11;8.37;;;2.63;;
6438;SDS011;3252;52.540;13.290;2023-05-19T04:30:15;9.37;;;2.67;;
6438;SDS011;3252;52.540;13.290;2023-05-19T04:32:21;9.67;;;2.57;;
6438;SDS011;3252;52.540;13.290;2023-05-19T04:34:27;9.47;;;2.87;;
6438;SDS011;3252;52.540;13.290;2023-05-19T04:36:30;7.40;;;2.70;;
6438;SDS011;3252;52.540;13.290;2023-05-19T04:38:34;8.17;;;2.43;;
6438;SDS011;3252;52.540;13.290;2023-05-19T04:40:37;9.90;;;2.73;;
6438;SDS011;3252;52.540;13.290;2023-05-19T04:42:42;11.30;;;2.63;;
6438;SDS011;3252;52.540;13.290;2023-05-19T04:44:46;8.53;;;2.70;;
6438;SDS011;3252;52.540;13.290;2023-05-19T04:46:53;7.83;;;2.40;;
6438;SDS011;3252;52.540;13.290;2023-05-19T04:48:57;6.13;;;2.53;;
6438;SDS011;3252;52.540;13.290;2023-05-19T04:51:00;7.50;;;2.57;;
6438;SDS011;3252;52.540;13.290;2023-05-19T04:53:03;7.93;;;2.57;;
6438;SDS011;3252;52.540;13.290;2023-05-19T04:55:06;7.93;;;2.70;;
6438;SDS011;3252;52.540;13.290;2023-05-19T04:57:11;9.13;;;2.43;;
6438;SDS011;3252;52.540;13.290;2023-05-19T04:59:13;7.93;;;2.70;;
6438;SDS011;3252;52.540;13.290;2023-05-19T05:01:16;7.90;;;2.97;;
6438;SDS011;3252;52.540;13.290;2023-05-19T05:03:22;10.07;;;2.57;;
6438;SDS011;3252;52.540;13.290;2023-05-19T05:05:25;9.83;;;3.03;;
6438;SDS011;3252;52.540;13.290;2023-05-19T05:07:27;8.77;;;2.87;;
6438;SDS011;3252;52.540;13.290;2023-05-19T05:09:30;9.73;;;2.70;;
6438;SDS011;3252;52.540;13.290;2023-05-19T05:11:34;11.97;;;3.20;;
6438;SDS011;3252;52.540;13.290;2023-05-19T05:13:37;14.97;;;9.40;;
6438;SDS011;3252;52.540;13.290;2023-05-19T05:15:40;11.07;;;3.97;;
6438;SDS011;3252;52.540;13.290;2023-05-19T05:17:43;7.20;;;2.60;;
6438;SDS011;3252;52.540;13.290;2023-05-19T05:19:48;6.23;;;2.23;;
6438;SDS011;3252;52.540;13.290;2023-05-19T05:21:51;11.07;;;2.67;;
6438;SDS011;3252;52.540;13.290;2023-05-19T05:23:54;8.43;;;2.70;;
6438;SDS011;3252;52.540;13.290;2023-05-19T05:25:59;6.67;;;3.00;;
6438;SDS011;3252;52.540;13.290;2023-05-19T05:28:10;10.57;;;4.43;;
6438;SDS011;3252;52.540;13.290;2023-05-19T05:30:12;12.63;;;5.53;;
6438;SDS011;3252;52.540;13.290;2023-05-19T05:32:15;9.40;;;2.90;;
6438;SDS011;3252;52.540;13.290;2023-05-19T05:34:18;7.87;;;2.43;;
6438;SDS011;3252;52.540;13.290;2023-05-19T05:36:21;6.80;;;2.77;;
6438;SDS011;3252;52.540;13.290;2023-05-19T05:38:24;7.70;;;2.80;;
6438;SDS011;3252;52.540;13.290;2023-05-19T05:40:26;11.80;;;2.47;;
6438;SDS011;3252;52.540;13.290;2023-05-19T05:42:28;8.27;;;2.93;;
6438;SDS011;3252;52.540;13.290;2023-05-19T05:44:31;8.10;;;2.60;;
6438;SDS011;3252;52.540;13.290;2023-05-19T05:46:35;5.43;;;2.63;;
6438;SDS011;3252;52.540;13.290;2023-05-19T05:48:38;11.77;;;2.67;;
6438;SDS011;3252;52.540;13.290;2023-05-19T05:50:45;12.53;;;3.13;;
6438;SDS011;3252;52.540;13.290;2023-05-19T05:52:54;8.97;;;3.40;;
6438;SDS011;3252;52.540;13.290;2023-05-19T05:55:01;6.80;;;3.03;;
6438;SDS011;3252;52.540;13.290;2023-05-19T05:57:04;9.53;;;4.73;;
6438;SDS011;3252;52.540;13.290;2023-05-19T05:59:06;13.07;;;4.03;;
6438;SDS011;3252;52.540;13.290;2023-05-19T06:01:09;8.17;;;3.70;;
6438;SDS011;3252;52.540;13.290;2023-05-19T06:03:12;8.97;;;3.10;;
6438;SDS011;3252;52.540;13.290;2023-05-19T06:05:17;19.90;;;9.93;;
6438;SDS011;3252;52.540;13.290;2023-05-19T06:07:23;6.33;;;3.27;;
6438;SDS011;3252;52.540;13.290;2023-05-19T06:09:27;7.13;;;2.97;;
6438;SDS011;3252;52.540;13.290;2023-05-19T06:11:30;7.90;;;2.93;;
6438;SDS011;3252;52.540;13.290;2023-05-19T06:13:33;11.67;;;3.00;;
6438;SDS011;3252;52.540;13.290;2023-05-19T06:15:38;9.43;;;2.73;;
6438;SDS011;3252;52.540;13.290;2023-05-19T06:17:56;8.47;;;2.77;;
6438;SDS011;3252;52.540;13.290;2023-05-19T06:19:58;5.10;;;2.70;;
6438;SDS011;3252;52.540;13.290;2023-05-19T06:22:00;4.93;;;2.80;;
6438;SDS011;3252;52.540;13.290;2023-05-19T06:24:06;8.50;;;2.93;;
6438;SDS011;3252;52.540;13.290;2023-05-19T06:26:09;10.93;;;3.00;;
6438;SDS011;3252;52.540;13.290;2023-05-19T06:28:12;19.00;;;7.30;;
6438;SDS011;3252;52.540;13.290;2023-05-19T06:30:15;9.37;;;4.27;;
6438;SDS011;3252;52.540;13.290;2023-05-19T06:32:27;10.00;;;3.30;;
6438;SDS011;3252;52.540;13.290;2023-05-19T06:34:31;10.83;;;3.00;;
6438;SDS011;3252;52.540;13.290;2023-05-19T06:36:33;7.33;;;2.73;;
6438;SDS011;3252;52.540;13.290;2023-05-19T06:38:36;10.70;;;3.07;;
6438;SDS011;3252;52.540;13.290;2023-05-19T06:40:38;11.37;;;2.83;;
6438;SDS011;3252;52.540;13.290;2023-05-19T06:42:42;9.70;;;3.07;;
6438;SDS011;3252;52.540;13.290;2023-05-19T06:44:50;9.00;;;2.97;;
6438;SDS011;3252;52.540;13.290;2023-05-19T06:46:53;8.83;;;3.20;;
6438;SDS011;3252;52.540;13.290;2023-05-19T06:51:23;9.47;;;2.70;;
6438;SDS011;3252;52.540;13.290;2023-05-19T06:53:29;10.00;;;2.90;;
6438;SDS011;3252;52.540;13.290;2023-05-19T06:55:32;8.57;;;3.03;;
6438;SDS011;3252;52.540;13.290;2023-05-19T06:57:34;5.70;;;2.70;;
6438;SDS011;3252;52.540;13.290;2023-05-19T06:59:38;7.93;;;2.80;;
6438;SDS011;3252;52.540;13.290;2023-05-19T07:01:43;6.73;;;2.70;;
6438;SDS011;3252;52.540;13.290;2023-05-19T07:03:46;5.87;;;2.60;;
6438;SDS011;3252;52.540;13.290;2023-05-19T07:05:49;5.83;;;2.77;;
6438;SDS011;3252;52.540;13.290;2023-05-19T07:07:51;6.43;;;2.40;;
6438;SDS011;3252;52.540;13.290;2023-05-19T07:09:57;6.73;;;2.60;;
6438;SDS011;3252;52.540;13.290;2023-05-19T07:12:04;3.97;;;2.43;;
6438;SDS011;3252;52.540;13.290;2023-05-19T07:14:06;8.33;;;2.70;;
6438;SDS011;3252;52.540;13.290;2023-05-19T07:16:10;4.43;;;2.30;;
6438;SDS011;3252;52.540;13.290;2023-05-19T07:18:13;7.53;;;2.93;;
6438;SDS011;3252;52.540;13.290;2023-05-19T07:20:15;7.07;;;2.73;;
6438;SDS011;3252;52.540;13.290;2023-05-19T07:22:19;6.10;;;2.67;;
6438;SDS011;3252;52.540;13.290;2023-05-19T07:24:21;6.93;;;2.50;;
6438;SDS011;3252;52.540;13.290;2023-05-19T07:26:24;7.30;;;2.70;;
6438;SDS011;3252;52.540;13.290;2023-05-19T07:28:26;4.90;;;2.80;;
6438;SDS011;3252;52.540;13.290;2023-05-19T07:30:31;3.40;;;2.30;;
6438;SDS011;3252;52.540;13.290;2023-05-19T07:32:38;5.77;;;2.27;;
6438;SDS011;3252;52.540;13.290;2023-05-19T07:34:40;6.53;;;2.43;;
6438;SDS011;3252;52.540;13.290;2023-05-19T07:36:43;5.70;;;2.80;;
6438;SDS011;3252;52.540;13.290;2023-05-19T07:38:45;4.37;;;2.17;;
6438;SDS011;3252;52.540;13.290;2023-05-19T07:40:47;7.40;;;2.97;;
6438;SDS011;3252;52.540;13.290;2023-05-19T07:42:50;7.80;;;2.90;;
6438;SDS011;3252;52.540;13.290;2023-05-19T07:44:52;7.73;;;2.40;;
6438;SDS011;3252;52.540;13.290;2023-05-19T07:46:54;10.60;;;2.73;;
6438;SDS011;3252;52.540;13.290;2023-05-19T07:48:58;5.03;;;2.13;;
6438;SDS011;3252;52.540;13.290;2023-05-19T07:51:00;6.13;;;2.70;;
6438;SDS011;3252;52.540;13.290;2023-05-19T07:53:03;4.73;;;2.67;;
6438;SDS011;3252;52.540;13.290;2023-05-19T07:55:06;6.07;;;2.60;;
6438;SDS011;3252;52.540;13.290;2023-05-19T07:57:08;4.60;;;2.40;;
6438;SDS011;3252;52.540;13.290;2023-05-19T07:59:10;5.37;;;2.17;;
6438;SDS011;3252;52.540;13.290;2023-05-19T08:01:15;5.77;;;2.53;;
6438;SDS011;3252;52.540;13.290;2023-05-19T08:03:17;6.47;;;2.53;;
6438;SDS011;3252;52.540;13.290;2023-05-19T08:05:23;6.63;;;2.87;;
6438;SDS011;3252;52.540;13.290;2023-05-19T08:07:26;5.83;;;2.77;;
6438;SDS011;3252;52.540;13.290;2023-05-19T08:09:28;7.27;;;2.50;;
6438;SDS011;3252;52.540;13.290;2023-05-19T08:11:30;9.20;;;2.70;;
6438;SDS011;3252;52.540;13.290;2023-05-19T08:13:32;6.13;;;2.60;;
6438;SDS011;3252;52.540;13.290;2023-05-19T08:15:35;8.00;;;2.83;;
6438;SDS011;3252;52.540;13.290;2023-05-19T08:17:37;6.03;;;2.70;;
6438;SDS011;3252;52.540;13.290;2023-05-19T08:19:40;6.33;;;2.70;;
6438;SDS011;3252;52.540;13.290;2023-05-19T08:21:44;7.10;;;2.83;;
6438;SDS011;3252;52.540;13.290;2023-05-19T08:23:47;4.57;;;2.67;;
6438;SDS011;3252;52.540;13.290;2023-05-19T08:25:50;9.83;;;2.70;;
6438;SDS011;3252;52.540;13.290;2023-05-19T08:27:52;8.83;;;2.50;;
6438;SDS011;3252;52.540;13.290;2023-05-19T08:29:55;5.47;;;2.43;;
6438;SDS011;3252;52.540;13.290;2023-05-19T08:32:00;4.60;;;2.30;;
6438;SDS011;3252;52.540;13.290;2023-05-19T08:34:03;6.47;;;2.67;;
6438;SDS011;3252;52.540;13.290;2023-05-19T08:36:05;6.67;;;2.57;;
6438;SDS011;3252;52.540;13.290;2023-05-19T08:38:09;5.87;;;2.50;;
6438;SDS011;3252;52.540;13.290;2023-05-19T08:40:16;7.63;;;2.77;;
6438;SDS011;3252;52.540;13.290;2023-05-19T08:42:18;8.27;;;2.50;;
6438;SDS011;3252;52.540;13.290;2023-05-19T08:44:20;6.27;;;2.20;;
6438;SDS011;3252;52.540;13.290;2023-05-19T08:46:24;8.93;;;2.53;;
6438;SDS011;3252;52.540;13.290;2023-05-19T08:48:26;7.63;;;2.47;;
6438;SDS011;3252;52.540;13.290;2023-05-19T08:50:30;6.33;;;2.27;;
6438;SDS011;3252;52.540;13.290;2023-05-19T08:52:40;5.07;;;2.30;;
6438;SDS011;3252;52.540;13.290;2023-05-19T08:54:52;7.50;;;2.50;;
6438;SDS011;3252;52.540;13.290;2023-05-19T08:57:00;5.87;;;2.03;;
6438;SDS011;3252;52.540;13.290;2023-05-19T08:59:02;5.60;;;2.07;;
6438;SDS011;3252;52.540;13.290;2023-05-19T09:01:06;6.07;;;1.90;;
6438;SDS011;3252;52.540;13.290;2023-05-19T09:03:08;5.13;;;2.10;;
6438;SDS011;3252;52.540;13.290;2023-05-19T09:05:12;5.00;;;1.80;;
6438;SDS011;3252;52.540;13.290;2023-05-19T09:07:15;8.03;;;2.20;;
6438;SDS011;3252;52.540;13.290;2023-05-19T09:09:18;5.93;;;2.47;;
6438;SDS011;3252;52.540;13.290;2023-05-19T09:11:25;3.17;;;2.00;;
6438;SDS011;3252;52.540;13.290;2023-05-19T09:13:27;6.80;;;2.20;;
6438;SDS011;3252;52.540;13.290;2023-05-19T09:15:33;5.33;;;2.00;;
6438;SDS011;3252;52.540;13.290;2023-05-19T09:17:36;2.60;;;1.70;;
6438;SDS011;3252;52.540;13.290;2023-05-19T09:19:41;5.10;;;2.10;;
6438;SDS011;3252;52.540;13.290;2023-05-19T09:21:44;5.97;;;2.17;;
6438;SDS011;3252;52.540;13.290;2023-05-19T09:23:46;7.67;;;2.10;;
6438;SDS011;3252;52.540;13.290;2023-05-19T09:25:50;4.47;;;2.10;;
6438;SDS011;3252;52.540;13.290;2023-05-19T09:27:54;4.33;;;1.90;;
6438;SDS011;3252;52.540;13.290;2023-05-19T09:29:57;4.63;;;1.70;;
6438;SDS011;3252;52.540;13.290;2023-05-19T09:32:09;4.17;;;2.10;;
6438;SDS011;3252;52.540;13.290;2023-05-19T09:34:12;7.43;;;2.10;;
6438;SDS011;3252;52.540;13.290;2023-05-19T09:36:14;2.58;;;1.67;;
6438;SDS011;3252;52.540;13.290;2023-05-19T09:38:17;6.13;;;1.88;;
6438;SDS011;3252;52.540;13.290;2023-05-19T09:40:20;6.22;;;1.95;;
6438;SDS011;3252;52.540;13.290;2023-05-19T09:42:28;3.50;;;1.60;;
6438;SDS011;3252;52.540;13.290;2023-05-19T09:44:33;2.92;;;1.70;;
6438;SDS011;3252;52.540;13.290;2023-05-19T09:46:36;4.68;;;1.63;;
6438;SDS011;3252;52.540;13.290;2023-05-19T09:48:38;5.97;;;1.60;;
6438;SDS011;3252;52.540;13.290;2023-05-19T09:50:41;5.15;;;1.80;;
6438;SDS011;3252;52.540;13.290;2023-05-19T09:52:44;1.63;;;1.25;;
6438;SDS011;3252;52.540;13.290;2023-05-19T09:54:47;6.90;;;1.77;;
6438;SDS011;3252;52.540;13.290;2023-05-19T09:56:57;1.70;;;1.33;;
6438;SDS011;3252;52.540;13.290;2023-05-19T09:59:00;2.27;;;1.50;;
6438;SDS011;3252;52.540;13.290;2023-05-19T10:01:05;2.80;;;1.50;;
6438;SDS011;3252;52.540;13.290;2023-05-19T10:03:08;2.47;;;1.53;;
6438;SDS011;3252;52.540;13.290;2023-05-19T10:05:12;1.80;;;1.10;;
6438;SDS011;3252;52.540;13.290;2023-05-19T10:07:16;3.07;;;1.40;;
6438;SDS011;3252;52.540;13.290;2023-05-19T10:09:21;2.37;;;1.20;;
6438;SDS011;3252;52.540;13.290;2023-05-19T10:11:25;2.07;;;1.30;;
6438;SDS011;3252;52.540;13.290;2023-05-19T10:13:28;2.23;;;1.37;;
6438;SDS011;3252;52.540;13.290;2023-05-19T10:15:31;4.10;;;1.60;;
6438;SDS011;3252;52.540;13.290;2023-05-19T10:17:35;2.40;;;1.57;;
6438;SDS011;3252;52.540;13.290;2023-05-19T10:19:39;3.23;;;1.53;;
6438;SDS011;3252;52.540;13.290;2023-05-19T10:21:44;5.60;;;1.70;;
6438;SDS011;3252;52.540;13.290;2023-05-19T10:23:46;2.63;;;1.40;;
6438;SDS011;3252;52.540;13.290;2023-05-19T10:25:49;3.10;;;1.30;;
6438;SDS011;3252;52.540;13.290;2023-05-19T10:27:54;4.63;;;1.47;;
6438;SDS011;3252;52.540;13.290;2023-05-19T10:30:01;5.00;;;1.30;;
6438;SDS011;3252;52.540;13.290;2023-05-19T10:32:09;2.60;;;1.37;;
6438;SDS011;3252;52.540;13.290;2023-05-19T10:34:26;3.40;;;1.40;;
6438;SDS011;3252;52.540;13.290;2023-05-19T10:36:51;6.27;;;1.33;;
6438;SDS011;3252;52.540;13.290;2023-05-19T10:39:04;2.83;;;1.50;;
6438;SDS011;3252;52.540;13.290;2023-05-19T10:41:15;3.03;;;1.60;;
6438;SDS011;3252;52.540;13.290;2023-05-19T10:43:29;4.80;;;1.60;;
6438;SDS011;3252;52.540;13.290;2023-05-19T10:45:40;5.63;;;1.80;;
6438;SDS011;3252;52.540;13.290;2023-05-19T10:47:49;3.03;;;1.27;;
6438;SDS011;3252;52.540;13.290;2023-05-19T10:49:53;5.03;;;1.43;;
6438;SDS011;3252;52.540;13.290;2023-05-19T10:51:55;4.37;;;1.67;;
6438;SDS011;3252;52.540;13.290;2023-05-19T10:53:57;5.33;;;1.40;;
6438;SDS011;3252;52.540;13.290;2023-05-19T10:56:02;5.03;;;1.30;;
6438;SDS011;3252;52.540;13.290;2023-05-19T10:58:06;12.57;;;1.47;;
6438;SDS011;3252;52.540;13.290;2023-05-19T11:02:40;3.87;;;1.57;;
6438;SDS011;3252;52.540;13.290;2023-05-19T11:04:46;1.47;;;0.93;;
6438;SDS011;3252;52.540;13.290;2023-05-19T11:06:52;5.97;;;1.60;;
6438;SDS011;3252;52.540;13.290;2023-05-19T11:08:55;2.67;;;1.30;;
6438;SDS011;3252;52.540;13.290;2023-05-19T11:11:10;3.27;;;1.40;;
6438;SDS011;3252;52.540;13.290;2023-05-19T11:13:20;3.10;;;1.30;;
6438;SDS011;3252;52.540;13.290;2023-05-19T11:15:22;2.33;;;1.30;;
6438;SDS011;3252;52.540;13.290;2023-05-19T11:17:26;3.00;;;1.63;;
6438;SDS011;3252;52.540;13.290;2023-05-19T11:19:30;3.43;;;1.50;;
6438;SDS011;3252;52.540;13.290;2023-05-19T11:21:40;5.93;;;1.60;;
6438;SDS011;3252;52.540;13.290;2023-05-19T11:23:45;2.60;;;1.30;;
6438;SDS011;3252;52.540;13.290;2023-05-19T11:25:48;5.80;;;1.53;;
6438;SDS011;3252;52.540;13.290;2023-05-19T11:27:53;2.10;;;1.30;;
6438;SDS011;3252;52.540;13.290;2023-05-19T11:29:56;2.40;;;1.47;;
6438;SDS011;3252;52.540;13.290;2023-05-19T11:31:59;5.33;;;1.40;;
6438;SDS011;3252;52.540;13.290;2023-05-19T11:34:02;2.13;;;1.30;;
6438;SDS011;3252;52.540;13.290;2023-05-19T11:36:06;2.50;;;1.27;;
6438;SDS011;3252;52.540;13.290;2023-05-19T11:38:09;4.60;;;1.30;;
6438;SDS011;3252;52.540;13.290;2023-05-19T11:40:13;5.20;;;1.30;;
6438;SDS011;3252;52.540;13.290;2023-05-19T11:42:16;3.33;;;1.57;;
6438;SDS011;3252;52.540;13.290;2023-05-19T11:44:18;2.00;;;1.20;;
6438;SDS011;3252;52.540;13.290;2023-05-19T11:46:20;3.37;;;1.40;;
6438;SDS011;3252;52.540;13.290;2023-05-19T11:48:23;3.37;;;1.50;;
6438;SDS011;3252;52.540;13.290;2023-05-19T11:50:26;4.53;;;1.47;;
6438;SDS011;3252;52.540;13.290;2023-05-19T11:52:29;4.70;;;1.50;;
6438;SDS011;3252;52.540;13.290;2023-05-19T11:54:31;2.03;;;1.30;;
6438;SDS011;3252;52.540;13.290;2023-05-19T11:56:39;2.93;;;1.50;;
6438;SDS011;3252;52.540;13.290;2023-05-19T11:58:42;7.20;;;1.23;;
6438;SDS011;3252;52.540;13.290;2023-05-19T12:00:44;4.07;;;1.90;;
6438;SDS011;3252;52.540;13.290;2023-05-19T12:02:46;3.37;;;1.43;;
6438;SDS011;3252;52.540;13.290;2023-05-19T12:04:49;2.43;;;1.60;;
6438;SDS011;3252;52.540;13.290;2023-05-19T12:06:51;3.63;;;1.33;;
6438;SDS011;3252;52.540;13.290;2023-05-19T12:08:54;5.43;;;1.60;;
6438;SDS011;3252;52.540;13.290;2023-05-19T12:10:56;3.20;;;1.40;;
6438;SDS011;3252;52.540;13.290;2023-05-19T12:12:59;9.23;;;1.73;;
6438;SDS011;3252;52.540;13.290;2023-05-19T12:15:02;6.67;;;1.60;;
6438;SDS011;3252;52.540;13.290;2023-05-19T12:17:09;5.53;;;1.33;;
6438;SDS011;3252;52.540;13.290;2023-05-19T12:19:12;3.20;;;1.17;;
6438;SDS011;3252;52.540;13.290;2023-05-19T12:21:14;9.50;;;1.50;;
6438;SDS011;3252;52.540;13.290;2023-05-19T12:23:17;1.77;;;1.00;;
6438;SDS011;3252;52.540;13.290;2023-05-19T12:25:19;4.10;;;1.37;;
6438;SDS011;3252;52.540;13.290;2023-05-19T12:27:22;5.27;;;1.50;;
6438;SDS011;3252;52.540;13.290;2023-05-19T12:29:28;5.33;;;1.50;;
6438;SDS011;3252;52.540;13.290;2023-05-19T12:31:32;5.87;;;1.47;;
6438;SDS011;3252;52.540;13.290;2023-05-19T12:33:35;4.47;;;1.40;;
6438;SDS011;3252;52.540;13.290;2023-05-19T12:35:37;3.83;;;1.40;;
6438;SDS011;3252;52.540;13.290;2023-05-19T12:37:39;3.87;;;1.40;;
6438;SDS011;3252;52.540;13.290;2023-05-19T12:39:42;1.80;;;1.20;;
6438;SDS011;3252;52.540;13.290;2023-05-19T12:41:44;4.27;;;1.40;;
6438;SDS011;3252;52.540;13.290;2023-05-19T12:43:46;2.90;;;1.30;;
6438;SDS011;3252;52.540;13.290;2023-05-19T12:45:51;3.70;;;1.50;;
6438;SDS011;3252;52.540;13.290;2023-05-19T12:47:53;5.23;;;1.33;;